createdAt,value
2022-09-21T00:01:31.906Z,-59
2022-09-21T00:04:04.546Z,-59
2022-09-21T00:06:35.170Z,-59
2022-09-21T00:09:05.024Z,-59
2022-09-21T00:11:34.314Z,-59
2022-09-21T00:14:12.736Z,-60
2022-09-21T00:16:43.018Z,-59
2022-09-21T00:19:11.905Z,-59
2022-09-21T00:21:39.448Z,-59
2022-09-21T00:24:08.214Z,-61
2022-09-21T00:26:35.544Z,-61
2022-09-21T00:29:05.020Z,-61
2022-09-21T00:31:33.156Z,-62
2022-09-21T00:34:01.150Z,-61
2022-09-21T00:36:29.093Z,-61
2022-09-21T00:39:03.709Z,-61
2022-09-21T00:41:34.319Z,-61
2022-09-21T00:44:28.630Z,-61
2022-09-21T00:47:15.503Z,-61
2022-09-21T00:49:49.537Z,-61
2022-09-21T00:52:19.564Z,-61
2022-09-21T00:55:00.628Z,-61
2022-09-21T00:57:31.276Z,-61
2022-09-21T01:00:02.555Z,-61
2022-09-21T01:02:30.047Z,-61
2022-09-21T01:04:57.501Z,-61
2022-09-21T01:07:33.659Z,-61
2022-09-21T01:10:11.952Z,-61
2022-09-21T01:13:41.457Z,-61
2022-09-21T01:17:09.325Z,-61
2022-09-21T01:20:38.360Z,-61
2022-09-21T01:24:19.938Z,-61
2022-09-21T01:27:41.874Z,-61
2022-09-21T01:30:19.566Z,-61
2022-09-21T01:33:28.268Z,-61
2022-09-21T01:36:05.983Z,-61
2022-09-21T01:38:45.349Z,-61
2022-09-21T01:41:19.776Z,-61
2022-09-21T01:43:56.881Z,-61
2022-09-21T01:46:32.355Z,-61
2022-09-21T01:49:14.099Z,-61
2022-09-21T01:51:58.385Z,-61
2022-09-21T01:54:39.632Z,-61
2022-09-21T01:57:36.919Z,-61
2022-09-21T02:00:07.259Z,-61
2022-09-21T02:02:51.164Z,-61
2022-09-21T02:05:23.588Z,-61
2022-09-21T02:07:52.648Z,-61
2022-09-21T02:10:45.946Z,-61
2022-09-21T02:13:16.640Z,-61
2022-09-21T02:16:26.124Z,-62
2022-09-21T02:20:03.944Z,-61
2022-09-21T02:23:29.541Z,-61
2022-09-21T02:26:17.353Z,-61
2022-09-21T02:29:33.504Z,-61
2022-09-21T02:32:12.276Z,-61
2022-09-21T02:35:02.416Z,-61
2022-09-21T02:37:57.043Z,-59
2022-09-21T02:40:53.629Z,-59
2022-09-21T02:43:39.400Z,-59
2022-09-21T02:46:21.382Z,-59
2022-09-21T02:49:03.629Z,-59
2022-09-21T02:51:41.353Z,-59
2022-09-21T02:54:14.385Z,-59
2022-09-21T02:56:44.552Z,-59
2022-09-21T02:59:16.698Z,-58
2022-09-21T03:01:44.615Z,-59
2022-09-21T03:04:12.301Z,-59
2022-09-21T03:06:39.601Z,-59
2022-09-21T03:09:07.039Z,-59
2022-09-21T03:11:36.113Z,-59
2022-09-21T03:14:08.595Z,-59
2022-09-21T03:16:37.576Z,-58
2022-09-21T03:19:06.136Z,-59
2022-09-21T03:21:34.368Z,-59
2022-09-21T03:24:01.999Z,-59
2022-09-21T03:26:29.704Z,-59
2022-09-21T03:28:57.091Z,-59
2022-09-21T03:31:24.430Z,-60
2022-09-21T03:33:51.798Z,-59
2022-09-21T03:36:19.521Z,-61
2022-09-21T03:38:46.827Z,-61
2022-09-21T03:41:15.271Z,-61
2022-09-21T03:43:42.539Z,-62
2022-09-21T03:46:10.148Z,-61
2022-09-21T03:48:37.447Z,-61
2022-09-21T03:51:04.883Z,-61
2022-09-21T03:53:32.153Z,-61
2022-09-21T03:55:59.420Z,-61
2022-09-21T03:58:26.772Z,-61
2022-09-21T04:00:54.788Z,-61
2022-09-21T04:03:22.260Z,-61
2022-09-21T04:05:49.787Z,-61
2022-09-21T04:08:17.028Z,-61
2022-09-21T04:10:44.387Z,-61
2022-09-21T04:13:14.358Z,-61
2022-09-21T04:15:41.680Z,-61
2022-09-21T04:18:09.062Z,-61
2022-09-21T04:20:36.392Z,-61
2022-09-21T04:23:03.748Z,-61
2022-09-21T04:25:31.031Z,-61
2022-09-21T04:27:58.324Z,-61
2022-09-21T04:30:25.787Z,-61
2022-09-21T04:32:53.320Z,-61
2022-09-21T04:35:21.254Z,-61
2022-09-21T04:37:48.499Z,-61
2022-09-21T04:40:15.909Z,-61
2022-09-21T04:42:43.257Z,-60
2022-09-21T04:45:11.209Z,-61
2022-09-21T04:47:38.472Z,-60
2022-09-21T04:50:07.084Z,-61
2022-09-21T04:52:34.373Z,-61
2022-09-21T04:55:01.665Z,-61
2022-09-21T04:57:29.644Z,-60
2022-09-21T04:59:56.913Z,-60
2022-09-21T05:02:25.344Z,-61
2022-09-21T05:04:52.600Z,-61
2022-09-21T05:07:19.876Z,-61
2022-09-21T05:10:05.279Z,-61
2022-09-21T05:12:39.709Z,-61
2022-09-21T05:15:11.406Z,-61
2022-09-21T05:17:39.968Z,-61
2022-09-21T05:20:07.900Z,-60
2022-09-21T05:22:35.590Z,-61
2022-09-21T05:25:03.128Z,-61
2022-09-21T05:27:30.375Z,-60
2022-09-21T05:29:58.281Z,-61
2022-09-21T05:32:53.833Z,-61
2022-09-21T05:36:10.489Z,-61
2022-09-21T05:38:38.219Z,-61
2022-09-21T05:41:06.587Z,-61
2022-09-21T05:43:34.599Z,-61
2022-09-21T05:46:59.147Z,-61
2022-09-21T05:50:51.036Z,-61
2022-09-21T05:54:12.108Z,-61
2022-09-21T05:57:12.576Z,-61
2022-09-21T06:00:16.360Z,-61
2022-09-21T06:03:31.083Z,-61
2022-09-21T06:05:59.452Z,-61
2022-09-21T06:08:27.643Z,-61
2022-09-21T06:10:57.645Z,-61
2022-09-21T06:13:24.933Z,-61
2022-09-21T06:15:52.416Z,-62
2022-09-21T06:18:20.016Z,-61
2022-09-21T06:20:47.580Z,-61
2022-09-21T06:23:15.615Z,-61
2022-09-21T06:25:44.499Z,-60
2022-09-21T06:28:13.391Z,-62
2022-09-21T06:30:42.857Z,-61
2022-09-21T06:33:10.601Z,-61
2022-09-21T06:35:38.080Z,-61
2022-09-21T06:38:08.133Z,-61
2022-09-21T06:40:38.969Z,-62
2022-09-21T06:43:06.620Z,-62
2022-09-21T06:45:34.226Z,-61
2022-09-21T06:48:01.783Z,-61
2022-09-21T06:50:29.446Z,-61
2022-09-21T06:53:03.509Z,-61
2022-09-21T06:55:32.077Z,-61
2022-09-21T06:58:05.462Z,-61
2022-09-21T07:00:33.527Z,-61
2022-09-21T07:03:04.470Z,-61
2022-09-21T07:05:34.208Z,-61
2022-09-21T07:08:02.443Z,-61
2022-09-21T07:10:29.756Z,-61
2022-09-21T07:13:02.707Z,-61
2022-09-21T07:15:31.180Z,-61
2022-09-21T07:18:06.148Z,-61
2022-09-21T07:20:33.795Z,-61
2022-09-21T07:23:01.789Z,-65
2022-09-21T07:25:29.299Z,-65
2022-09-21T07:27:56.571Z,-65
2022-09-21T07:30:23.933Z,-64
2022-09-21T07:32:51.252Z,-64
2022-09-21T07:35:20.121Z,-64
2022-09-21T07:37:47.367Z,-64
2022-09-21T07:40:14.749Z,-64
2022-09-21T07:42:44.848Z,-64
2022-09-21T07:45:12.298Z,-64
2022-09-21T07:47:39.576Z,-65
2022-09-21T07:50:07.602Z,-64
2022-09-21T07:52:35.147Z,-65
2022-09-21T07:55:02.425Z,-64
2022-09-21T07:57:48.215Z,-65
2022-09-21T08:00:15.764Z,-64
2022-09-21T08:02:47.498Z,-65
2022-09-21T08:05:17.615Z,-65
2022-09-21T08:07:44.972Z,-65
2022-09-21T08:10:13.058Z,-65
2022-09-21T08:12:41.196Z,-65
2022-09-21T08:15:25.011Z,-65
2022-09-21T08:17:58.715Z,-64
2022-09-21T08:20:26.080Z,-65
2022-09-21T08:22:56.279Z,-66
2022-09-21T08:25:23.923Z,-65
2022-09-21T08:27:51.180Z,-64
2022-09-21T08:30:18.512Z,-65
2022-09-21T08:32:52.065Z,-65
2022-09-21T08:35:19.410Z,-65
2022-09-21T08:37:46.800Z,-65
2022-09-21T08:40:16.789Z,-65
2022-09-21T08:43:09.645Z,-65
2022-09-21T08:45:46.692Z,-65
2022-09-21T08:48:30.026Z,-65
2022-09-21T08:51:11.354Z,-64
2022-09-21T08:53:48.117Z,-65
2022-09-21T08:56:16.395Z,-65
2022-09-21T08:58:43.991Z,-65
2022-09-21T09:01:20.318Z,-64
2022-09-21T09:04:31.215Z,-65
2022-09-21T09:07:33.271Z,-65
2022-09-21T09:10:27.984Z,-64
2022-09-21T09:14:13.669Z,-65
2022-09-21T09:17:36.224Z,-64
2022-09-21T09:20:36.120Z,-65
2022-09-21T09:23:18.292Z,-65
2022-09-21T09:26:10.863Z,-65
2022-09-21T09:29:01.984Z,-65
2022-09-21T09:31:40.180Z,-65
2022-09-21T09:34:33.612Z,-64
2022-09-21T09:37:16.621Z,-65
2022-09-21T09:39:54.800Z,-65
2022-09-21T09:43:07.535Z,-65
2022-09-21T09:46:13.543Z,-65
2022-09-21T09:49:38.612Z,-65
2022-09-21T09:52:11.130Z,-65
2022-09-21T09:54:38.525Z,-64
2022-09-21T09:57:07.376Z,-65
2022-09-21T09:59:54.413Z,-65
2022-09-21T10:02:29.456Z,-65
2022-09-21T10:05:07.322Z,-65
2022-09-21T10:07:45.893Z,-65
2022-09-21T10:10:29.253Z,-65
2022-09-21T10:13:37.943Z,-65
2022-09-21T10:16:22.895Z,-65
2022-09-21T10:18:56.459Z,-65
2022-09-21T10:21:41.360Z,-65
2022-09-21T10:24:23.540Z,-65
2022-09-21T10:27:05.048Z,-66
2022-09-21T10:29:47.716Z,-66
2022-09-21T10:32:26.574Z,-67
2022-09-21T10:35:10.342Z,-68
2022-09-21T10:37:48.478Z,-68
2022-09-21T10:40:21.450Z,-68
2022-09-21T10:43:00.437Z,-68
2022-09-21T10:45:37.026Z,-65
2022-09-21T10:48:20.972Z,-64
2022-09-21T10:50:51.576Z,-65
2022-09-21T10:53:36.142Z,-65
2022-09-21T10:56:17.607Z,-68
2022-09-21T10:59:27.284Z,-66
2022-09-21T11:02:00.162Z,-65
2022-09-21T11:04:53.708Z,-67
2022-09-21T11:07:47.852Z,-66
2022-09-21T11:10:51.233Z,-65
2022-09-21T11:13:41.024Z,-67
2022-09-21T11:16:48.728Z,-67
2022-09-21T11:19:52.411Z,-65
2022-09-21T11:22:57.715Z,-65
2022-09-21T11:25:43.765Z,-65
2022-09-21T11:28:28.668Z,-64
2022-09-21T11:31:40.607Z,-64
2022-09-21T11:34:55.860Z,-65
2022-09-21T11:38:11.748Z,-65
2022-09-21T11:40:55.807Z,-65
2022-09-21T11:44:18.855Z,-65
2022-09-21T11:47:58.483Z,-64
2022-09-21T11:51:38.717Z,-65
2022-09-21T11:55:00.628Z,-67
2022-09-21T11:57:38.739Z,-67
2022-09-21T12:00:21.513Z,-66
2022-09-21T12:03:45.940Z,-67
2022-09-21T12:07:01.427Z,-66
2022-09-21T12:10:28.189Z,-67
2022-09-21T12:13:43.888Z,-66
2022-09-21T12:17:06.385Z,-65
2022-09-21T12:20:06.157Z,-65
2022-09-21T12:22:43.743Z,-64
2022-09-21T12:25:43.796Z,-64
2022-09-21T12:28:49.266Z,-64
2022-09-21T12:31:30.308Z,-64
2022-09-21T12:34:38.031Z,-64
2022-09-21T12:37:32.524Z,-64
2022-09-21T12:40:36.653Z,-64
2022-09-21T12:43:39.613Z,-64
2022-09-21T12:46:29.955Z,-65
2022-09-21T12:49:03.099Z,-65
2022-09-21T12:51:43.000Z,-65
2022-09-21T12:55:10.024Z,-64
2022-09-21T12:58:41.364Z,-65
2022-09-21T13:01:56.989Z,-65
2022-09-21T13:05:15.999Z,-65
2022-09-21T13:08:31.030Z,-65
2022-09-21T13:11:07.823Z,-65
2022-09-21T13:13:56.327Z,-69
2022-09-21T13:16:40.201Z,-65
2022-09-21T13:19:13.459Z,-65
2022-09-21T13:21:42.154Z,-66
2022-09-21T13:24:30.457Z,-65
2022-09-21T13:27:05.026Z,-65
2022-09-21T13:29:38.047Z,-65
2022-09-21T13:32:24.053Z,-65
2022-09-21T13:34:51.588Z,-65
2022-09-21T13:37:19.120Z,-65
2022-09-21T13:40:06.230Z,-65
2022-09-21T13:42:33.675Z,-65
2022-09-21T13:45:15.597Z,-65
2022-09-21T13:47:47.308Z,-65
2022-09-21T13:50:39.159Z,-65
2022-09-21T13:53:29.611Z,-65
2022-09-21T13:56:16.724Z,-65
2022-09-21T13:58:52.146Z,-65
2022-09-21T14:01:45.899Z,-65
2022-09-21T14:04:31.678Z,-65
2022-09-21T14:07:08.041Z,-65
2022-09-21T14:10:03.686Z,-65
2022-09-21T14:12:44.576Z,-65
2022-09-21T14:15:19.197Z,-65
2022-09-21T14:18:37.653Z,-65
2022-09-21T14:21:18.349Z,-64
2022-09-21T14:24:07.679Z,-64
2022-09-21T14:26:39.734Z,-64
2022-09-21T14:29:48.271Z,-65
2022-09-21T14:32:25.564Z,-66
2022-09-21T14:35:08.141Z,-64
2022-09-21T14:37:52.162Z,-64
2022-09-21T14:40:42.248Z,-64
2022-09-21T14:43:20.408Z,-64
2022-09-21T14:46:36.798Z,-64
2022-09-21T14:49:51.188Z,-64
2022-09-21T14:52:43.375Z,-64
2022-09-21T14:56:22.551Z,-64
2022-09-21T15:00:00.891Z,-64
2022-09-21T15:02:35.703Z,-64
2022-09-21T15:05:09.606Z,-64
2022-09-21T15:08:56.548Z,-64
2022-09-21T15:11:44.280Z,-64
2022-09-21T15:14:38.236Z,-64
2022-09-21T15:17:30.038Z,-64
2022-09-21T15:20:16.213Z,-64
2022-09-21T15:22:44.185Z,-64
2022-09-21T15:25:14.671Z,-64
2022-09-21T15:27:47.367Z,-64
2022-09-21T15:30:33.125Z,-64
2022-09-21T15:33:02.751Z,-64
2022-09-21T15:35:33.739Z,-64
2022-09-21T15:38:01.671Z,-64
2022-09-21T15:40:35.893Z,-64
2022-09-21T15:43:11.728Z,-64
2022-09-21T15:46:07.441Z,-64
2022-09-21T15:48:42.210Z,-64
2022-09-21T15:51:31.148Z,-64
2022-09-21T15:54:30.530Z,-63
2022-09-21T15:57:05.921Z,-64
2022-09-21T15:59:35.436Z,-64
2022-09-21T16:02:17.352Z,-64
2022-09-21T16:04:52.471Z,-64
2022-09-21T16:07:38.823Z,-64
2022-09-21T16:10:30.818Z,-64
2022-09-21T16:13:43.821Z,-64
2022-09-21T16:16:14.849Z,-64
2022-09-21T16:18:54.422Z,-64
2022-09-21T16:21:27.671Z,-64
2022-09-21T16:23:59.183Z,-64
2022-09-21T16:26:38.001Z,-64
2022-09-21T16:29:45.531Z,-64
2022-09-21T16:32:18.695Z,-64
2022-09-21T16:34:52.685Z,-64
2022-09-21T16:37:25.912Z,-64
2022-09-21T16:40:00.566Z,-64
2022-09-21T16:42:34.331Z,-64
2022-09-21T16:45:11.264Z,-64
2022-09-21T16:47:39.248Z,-65
2022-09-21T16:50:18.998Z,-64
2022-09-21T16:52:52.058Z,-64
2022-09-21T16:55:24.351Z,-64
2022-09-21T16:57:54.327Z,-64
2022-09-21T17:00:22.165Z,-64
2022-09-21T17:02:49.795Z,-64
2022-09-21T17:05:20.683Z,-64
2022-09-21T17:07:59.198Z,-64
2022-09-21T17:10:37.873Z,-64
2022-09-21T17:13:06.890Z,-64
2022-09-21T17:15:36.352Z,-64
2022-09-21T17:18:04.672Z,-64
2022-09-21T17:20:43.760Z,-64
2022-09-21T17:23:12.076Z,-63
2022-09-21T17:25:39.435Z,-63
2022-09-21T17:28:25.746Z,-64
2022-09-21T17:30:54.793Z,-64
2022-09-21T17:33:25.043Z,-64
2022-09-21T17:35:53.208Z,-63
2022-09-21T17:38:20.738Z,-64
2022-09-21T17:40:48.305Z,-63
2022-09-21T17:43:54.896Z,-64
2022-09-21T17:47:01.408Z,-64
2022-09-21T17:49:29.968Z,-64
2022-09-21T17:52:16.288Z,-64
2022-09-21T17:54:43.927Z,-64
2022-09-21T17:57:41.924Z,-64
2022-09-21T18:00:32.250Z,-64
2022-09-21T18:03:00.009Z,-64
2022-09-21T18:05:30.761Z,-64
2022-09-21T18:07:59.014Z,-64
2022-09-21T18:10:27.520Z,-63
2022-09-21T18:13:47.954Z,-64
2022-09-21T18:17:01.077Z,-64
2022-09-21T18:20:34.231Z,-64
2022-09-21T18:23:37.663Z,-64
2022-09-21T18:26:05.980Z,-64
2022-09-21T18:28:48.012Z,-64
2022-09-21T18:32:06.993Z,-64
2022-09-21T18:35:18.662Z,-64
2022-09-21T18:38:26.911Z,-63
2022-09-21T18:41:46.144Z,-64
2022-09-21T18:44:49.867Z,-62
2022-09-21T18:47:38.842Z,-59
2022-09-21T18:51:14.911Z,-59
2022-09-21T18:54:03.477Z,-59
2022-09-21T18:56:37.864Z,-59
2022-09-21T18:59:07.153Z,-60
2022-09-21T19:01:35.180Z,-59
2022-09-21T19:04:03.327Z,-60
2022-09-21T19:06:44.559Z,-60
2022-09-21T19:09:37.444Z,-60
2022-09-21T19:13:02.375Z,-60
2022-09-21T19:16:00.820Z,-61
2022-09-21T19:19:06.740Z,-68
2022-09-21T19:22:01.505Z,-62
2022-09-21T19:25:04.524Z,-62
2022-09-21T19:27:46.968Z,-62
2022-09-21T19:30:17.116Z,-62
2022-09-21T19:33:02.889Z,-61
2022-09-21T19:35:34.364Z,-62
2022-09-21T19:38:09.087Z,-62
2022-09-21T19:40:39.494Z,-62
2022-09-21T19:43:40.228Z,-62
2022-09-21T19:47:12.147Z,-62
2022-09-21T19:49:54.706Z,-62
2022-09-21T19:52:35.639Z,-62
2022-09-21T19:55:23.551Z,-62
2022-09-21T19:58:14.502Z,-62
2022-09-21T20:00:43.710Z,-62
2022-09-21T20:03:44.690Z,-62
2022-09-21T20:06:44.193Z,-62
2022-09-21T20:09:42.133Z,-60
2022-09-21T20:12:42.090Z,-60
2022-09-21T20:15:29.379Z,-60
2022-09-21T20:18:14.773Z,-60
2022-09-21T20:20:43.080Z,-60
2022-09-21T20:23:13.902Z,-60
2022-09-21T20:26:01.414Z,-60
2022-09-21T20:28:29.148Z,-60
2022-09-21T20:30:56.914Z,-60
2022-09-21T20:33:26.873Z,-60
2022-09-21T20:35:55.890Z,-60
2022-09-21T20:38:23.516Z,-60
2022-09-21T20:40:52.339Z,-60
2022-09-21T20:43:21.915Z,-62
2022-09-21T20:45:49.380Z,-60
2022-09-21T20:48:17.488Z,-60
2022-09-21T20:50:50.370Z,-60
2022-09-21T20:53:19.264Z,-59
2022-09-21T20:56:00.963Z,-60
2022-09-21T20:58:35.233Z,-60
2022-09-21T21:01:10.009Z,-60
2022-09-21T21:03:37.504Z,-60
2022-09-21T21:06:18.649Z,-60
2022-09-21T21:08:46.264Z,-60
2022-09-21T21:11:16.908Z,-60
2022-09-21T21:13:44.286Z,-61
2022-09-21T21:16:12.499Z,-60
2022-09-21T21:18:41.624Z,-60
2022-09-21T21:21:09.737Z,-60
2022-09-21T21:23:57.161Z,-59
2022-09-21T21:26:43.858Z,-60
2022-09-21T21:29:14.504Z,-60
2022-09-21T21:31:42.207Z,-60
2022-09-21T21:34:09.549Z,-60
2022-09-21T21:36:36.845Z,-60
2022-09-21T21:39:04.159Z,-60
2022-09-21T21:41:32.655Z,-60
2022-09-21T21:44:00.196Z,-60
2022-09-21T21:46:28.027Z,-60
2022-09-21T21:48:55.327Z,-60
2022-09-21T21:51:22.595Z,-60
2022-09-21T21:53:49.869Z,-60
2022-09-21T21:56:20.083Z,-59
2022-09-21T21:58:47.525Z,-60
2022-09-21T22:01:22.255Z,-60
2022-09-21T22:04:01.676Z,-60
2022-09-21T22:06:33.391Z,-60
2022-09-21T22:09:03.499Z,-59
2022-09-21T22:11:32.055Z,-59
2022-09-21T22:14:02.645Z,-60
2022-09-21T22:16:32.196Z,-60
2022-09-21T22:19:04.685Z,-60
2022-09-21T22:21:48.187Z,-59
2022-09-21T22:24:17.810Z,-60
2022-09-21T22:26:48.424Z,-59
2022-09-21T22:29:17.312Z,-59
2022-09-21T22:31:50.089Z,-60
2022-09-21T22:34:17.680Z,-59
2022-09-21T22:36:45.107Z,-59
2022-09-21T22:39:12.946Z,-60
2022-09-21T22:41:42.787Z,-59
2022-09-21T22:44:11.361Z,-60
2022-09-21T22:46:39.109Z,-60
2022-09-21T22:49:07.739Z,-59
2022-09-21T22:51:37.857Z,-59
2022-09-21T22:54:05.241Z,-59
2022-09-21T22:56:35.039Z,-60
2022-09-21T22:59:05.428Z,-59
2022-09-21T23:01:40.223Z,-59
2022-09-21T23:04:13.630Z,-59
2022-09-21T23:06:45.260Z,-60
2022-09-21T23:09:21.360Z,-59
2022-09-21T23:11:54.917Z,-59
2022-09-21T23:14:23.537Z,-59
2022-09-21T23:16:51.190Z,-59
2022-09-21T23:19:18.540Z,-60
2022-09-21T23:21:50.137Z,-60
2022-09-21T23:24:20.334Z,-60
2022-09-21T23:26:52.963Z,-59
2022-09-21T23:29:20.553Z,-59
2022-09-21T23:31:47.993Z,-59
2022-09-21T23:34:16.422Z,-59
2022-09-21T23:36:45.445Z,-59
2022-09-21T23:39:15.209Z,-59
2022-09-21T23:41:42.885Z,-59
2022-09-21T23:44:11.168Z,-59
2022-09-21T23:46:40.918Z,-59
2022-09-21T23:49:09.007Z,-59
2022-09-21T23:51:36.911Z,-59
2022-09-21T23:54:04.967Z,-59
2022-09-21T23:56:32.768Z,-59
2022-09-21T23:59:00.937Z,-59
